Time;durP1;ratioP1;P1;durP2;ratioP2;P2;SDS_P1;SDS_P2;PMS_P1;PMS_P2;Temp;Humidity;BMP_temperature;BMP_pressure;BME280_temperature;BME280_humidity;BME280_pressure;Samples;Min_cycle;Max_cycle;Signal;HPM_P1;HPM_P2
2023/03/14 00:01:14;;;;;;;3.23;1.30;;;;;;;9.46;100.00;98167.94;5048866;27;20283;-78
2023/03/14 00:03:40;;;;;;;4.37;1.53;;;;;;;9.51;100.00;98176.91;5055827;28;20177;-78
2023/03/14 00:06:06;;;;;;;3.73;1.60;;;;;;;9.47;100.00;98184.97;5073425;28;20264;-77
2023/03/14 00:08:32;;;;;;;2.97;1.63;;;;;;;9.56;100.00;98180.84;5055688;28;20177;-79
2023/03/14 00:10:57;;;;;;;3.53;1.37;;;;;;;9.62;100.00;98196.56;5060548;28;20272;-77
2023/03/14 00:13:23;;;;;;;4.73;1.50;;;;;;;9.59;100.00;98191.69;5102608;28;20168;-77
2023/03/14 00:15:49;;;;;;;5.90;1.60;;;;;;;9.62;100.00;98188.06;5058906;28;20227;-77
2023/03/14 00:18:15;;;;;;;4.43;1.53;;;;;;;9.63;100.00;98187.94;5085697;28;20176;-77
2023/03/14 00:20:40;;;;;;;3.73;1.80;;;;;;;9.66;100.00;98180.00;5089602;27;20623;-78
2023/03/14 00:23:05;;;;;;;3.17;1.43;;;;;;;9.67;100.00;98180.78;5087067;28;20199;-77
2023/03/14 00:25:31;;;;;;;1.90;1.23;;;;;;;9.77;100.00;98176.53;5075411;28;20265;-77
2023/03/14 00:27:56;;;;;;;2.13;1.43;;;;;;;9.71;100.00;98165.94;5074991;28;20654;-78
2023/03/14 00:30:21;;;;;;;3.77;1.57;;;;;;;9.78;100.00;98167.88;5044534;27;20367;-77
2023/03/14 00:32:47;;;;;;;4.23;1.33;;;;;;;9.78;100.00;98155.03;5070516;28;20668;-77
2023/03/14 00:35:12;;;;;;;6.10;2.17;;;;;;;9.75;100.00;98159.63;5073278;28;20180;-78
2023/03/14 00:37:37;;;;;;;4.43;1.50;;;;;;;9.73;100.00;98152.03;5073058;28;20215;-78
2023/03/14 00:40:07;;;;;;;6.67;1.67;;;;;;;9.88;100.00;98144.03;5073045;28;20287;-77
2023/03/14 00:42:34;;;;;;;4.07;1.27;;;;;;;9.84;100.00;98134.00;5060046;28;20215;-78
2023/03/14 00:44:59;;;;;;;4.37;2.17;;;;;;;9.78;100.00;98133.69;5087505;28;20258;-77
2023/03/14 00:47:24;;;;;;;4.77;1.47;;;;;;;9.77;100.00;98124.38;5108744;28;20223;-78
2023/03/14 00:49:50;;;;;;;4.83;1.70;;;;;;;9.89;100.00;98127.69;5108655;28;20208;-78
2023/03/14 00:52:15;;;;;;;3.13;1.60;;;;;;;9.84;100.00;98125.50;5097912;28;20805;-77
2023/03/14 00:54:43;;;;;;;3.63;1.70;;;;;;;9.75;100.00;98126.25;5074719;28;20202;-77
2023/03/14 00:57:08;;;;;;;4.43;1.50;;;;;;;9.85;100.00;98127.94;5073018;28;20651;-77
2023/03/14 00:59:33;;;;;;;4.80;1.70;;;;;;;9.84;100.00;98133.19;5104341;28;20322;-77
2023/03/14 01:01:59;;;;;;;5.60;1.73;;;;;;;9.83;100.00;98134.94;5097186;28;20259;-75
2023/03/14 01:04:24;;;;;;;4.23;1.43;;;;;;;9.88;100.00;98147.41;5093526;28;20651;-77
2023/03/14 01:06:49;;;;;;;4.17;1.60;;;;;;;9.95;100.00;98152.84;5093365;28;20665;-76
2023/03/14 01:09:17;;;;;;;5.33;1.93;;;;;;;9.89;100.00;98138.75;5093024;28;20194;-76
2023/03/14 01:11:46;;;;;;;3.27;1.43;;;;;;;9.88;100.00;98152.53;5077577;28;20230;-77
2023/03/14 01:14:11;;;;;;;6.37;1.97;;;;;;;9.80;100.00;98150.59;5075903;28;20255;-77
2023/03/14 01:16:36;;;;;;;6.50;1.70;;;;;;;9.84;100.00;98146.84;5074427;28;20734;-76
2023/03/14 01:19:02;;;;;;;5.83;2.00;;;;;;;9.84;100.00;98140.91;5092912;28;20194;-76
2023/03/14 01:21:31;;;;;;;4.10;2.23;;;;;;;9.75;100.00;98133.94;5076350;28;20215;-76
2023/03/14 01:23:58;;;;;;;5.73;1.97;;;;;;;9.81;100.00;98138.56;5077902;28;20251;-77
2023/03/14 01:26:25;;;;;;;8.17;1.50;;;;;;;9.86;100.00;98146.72;5061194;28;20179;-76
2023/03/14 01:28:54;;;;;;;4.03;1.67;;;;;;;9.85;100.00;98147.66;5074517;28;20184;-76
2023/03/14 01:31:19;;;;;;;3.77;1.73;;;;;;;9.94;100.00;98135.81;5075014;28;20261;-76
2023/03/14 01:33:45;;;;;;;4.87;1.70;;;;;;;9.85;100.00;98139.97;5097293;28;20600;-76
2023/03/14 01:36:13;;;;;;;3.23;1.40;;;;;;;9.75;100.00;98129.63;5092161;28;20647;-76
2023/03/14 01:38:40;;;;;;;5.67;1.80;;;;;;;9.74;100.00;98122.88;5092424;28;20184;-76
2023/03/14 01:41:07;;;;;;;3.17;1.53;;;;;;;9.71;100.00;98117.97;5072780;28;20222;-76
2023/03/14 01:43:32;;;;;;;6.07;1.90;;;;;;;9.69;100.00;98114.75;5081896;28;20214;-77
2023/03/14 01:46:03;;;;;;;6.37;1.93;;;;;;;9.67;100.00;98111.47;5092485;28;20212;-76
2023/03/14 01:48:51;;;;;;;4.83;1.97;;;;;;;9.68;100.00;98105.41;5092213;28;20223;-76
2023/03/14 01:51:24;;;;;;;5.47;1.93;;;;;;;9.80;100.00;98112.09;5060296;28;20227;-76
2023/03/14 01:53:51;;;;;;;8.20;1.70;;;;;;;9.85;100.00;98109.16;5078413;28;20648;-80
2023/03/14 01:56:18;;;;;;;3.83;1.50;;;;;;;9.95;100.00;98106.63;5074180;28;20187;-76
2023/03/14 01:58:47;;;;;;;5.47;1.67;;;;;;;9.93;100.00;98093.88;5074048;28;20173;-76
2023/03/14 02:01:16;;;;;;;5.57;2.53;;;;;;;9.93;100.00;98082.81;5073007;28;20223;-78
2023/03/14 02:03:54;;;;;;;7.87;1.70;;;;;;;9.88;100.00;98080.63;5080648;28;20522;-76
2023/03/14 02:06:25;;;;;;;6.07;1.80;;;;;;;9.84;100.00;98079.28;5073752;28;20206;-77
2023/03/14 02:08:51;;;;;;;5.00;1.70;;;;;;;9.72;100.00;98073.41;5074165;28;20169;-77
2023/03/14 02:11:18;;;;;;;6.50;1.80;;;;;;;9.94;100.00;98067.28;5091068;28;20233;-77
2023/03/14 02:13:44;;;;;;;7.30;1.60;;;;;;;9.86;100.00;98059.41;5079921;28;20267;-77
2023/03/14 02:16:10;;;;;;;3.83;1.67;;;;;;;9.89;100.00;98066.06;5091700;28;20179;-76
2023/03/14 02:18:35;;;;;;;5.43;2.13;;;;;;;10.00;100.00;98058.25;5073920;28;20245;-76
2023/03/14 02:21:12;;;;;;;5.23;1.60;;;;;;;9.91;100.00;98041.03;5089323;27;20226;-78
2023/03/14 02:23:47;;;;;;;4.80;1.77;;;;;;;9.86;100.00;98049.16;5098317;28;20189;-78
2023/03/14 02:26:37;;;;;;;4.47;2.00;;;;;;;9.74;100.00;98040.72;5072959;28;20233;-76
2023/03/14 02:29:03;;;;;;;7.10;1.80;;;;;;;9.82;100.00;98030.63;5068843;28;20493;-76
2023/03/14 02:31:28;;;;;;;6.17;1.60;;;;;;;9.81;100.00;98023.84;5092555;28;20292;-76
2023/03/14 02:33:55;;;;;;;7.10;2.10;;;;;;;9.75;100.00;98013.28;5095797;28;20671;-76
2023/03/14 02:36:20;;;;;;;8.20;2.13;;;;;;;9.66;100.00;98023.41;5053387;28;20215;-76
2023/03/14 02:39:00;;;;;;;9.57;2.10;;;;;;;9.63;100.00;98031.34;5086649;28;20654;-76
2023/03/14 02:41:26;;;;;;;7.73;1.80;;;;;;;9.56;100.00;98032.78;5074580;28;20284;-76
2023/03/14 02:43:51;;;;;;;4.53;1.90;;;;;;;9.44;100.00;98023.53;5077699;28;20203;-76
2023/03/14 02:46:19;;;;;;;6.53;1.90;;;;;;;9.46;100.00;98026.81;5073490;28;20190;-76
2023/03/14 02:48:53;;;;;;;5.70;1.63;;;;;;;9.66;100.00;98033.66;5073203;28;20198;-76
2023/03/14 02:51:20;;;;;;;3.83;1.67;;;;;;;9.53;100.00;98020.22;5073598;28;20230;-76
2023/03/14 02:53:45;;;;;;;4.67;2.03;;;;;;;9.42;100.00;98010.03;5079041;28;20172;-76
2023/03/14 02:56:10;;;;;;;4.50;1.57;;;;;;;9.46;100.00;98022.47;5091551;28;20225;-76
2023/03/14 02:58:37;;;;;;;5.90;2.10;;;;;;;9.37;100.00;98018.91;5091293;28;20218;-76
2023/03/14 03:01:02;;;;;;;5.70;1.70;;;;;;;9.45;100.00;98015.75;5071247;28;20235;-77
2023/03/14 03:03:28;;;;;;;5.97;1.63;;;;;;;9.51;100.00;98014.41;5067567;28;20229;-76
2023/03/14 03:05:55;;;;;;;6.93;1.73;;;;;;;9.57;100.00;98025.91;5073379;28;20175;-76
2023/03/14 03:08:22;;;;;;;6.17;2.07;;;;;;;9.51;100.00;98015.22;5077271;28;20180;-76
2023/03/14 03:10:48;;;;;;;7.97;2.03;;;;;;;9.54;100.00;98032.13;5072730;28;20308;-77
2023/03/14 03:13:13;;;;;;;7.57;1.90;;;;;;;9.59;100.00;98021.44;5104384;28;20226;-76
2023/03/14 03:15:39;;;;;;;5.67;1.80;;;;;;;9.57;100.00;98008.75;5095123;28;20191;-76
2023/03/14 03:18:04;;;;;;;5.00;1.80;;;;;;;9.64;100.00;98015.00;5094564;28;20233;-76
2023/03/14 03:20:30;;;;;;;5.17;1.80;;;;;;;9.71;100.00;97996.50;5070265;28;20300;-76
2023/03/14 03:22:55;;;;;;;5.83;2.23;;;;;;;9.74;100.00;98006.53;5090036;28;20188;-75
2023/03/14 03:25:55;;;;;;;9.30;1.90;;;;;;;9.73;100.00;98010.84;5077037;28;20313;-76
2023/03/14 03:28:23;;;;;;;6.57;2.00;;;;;;;9.85;100.00;98002.09;5094924;28;20638;-76
2023/03/14 03:30:49;;;;;;;4.00;2.03;;;;;;;9.82;100.00;98006.69;5072059;28;20227;-76
2023/03/14 03:33:14;;;;;;;4.60;1.83;;;;;;;9.87;100.00;98016.56;5104524;28;20214;-76
2023/03/14 03:35:49;;;;;;;4.10;1.70;;;;;;;9.88;100.00;98001.03;5076761;28;20263;-75
2023/03/14 03:38:15;;;;;;;5.53;2.13;;;;;;;9.84;100.00;98010.75;5076427;28;20179;-75
2023/03/14 03:40:40;;;;;;;7.47;1.70;;;;;;;9.93;100.00;98003.19;5071239;28;20223;-76
2023/03/14 03:43:06;;;;;;;5.77;1.77;;;;;;;9.92;100.00;97991.31;5088025;28;20179;-75
2023/03/14 03:45:31;;;;;;;6.67;1.73;;;;;;;9.99;100.00;97979.56;5094854;28;20440;-75
2023/03/14 03:47:57;;;;;;;3.80;1.80;;;;;;;10.01;100.00;97975.13;5076209;28;20686;-75
2023/03/14 03:50:22;;;;;;;8.37;1.47;;;;;;;10.18;100.00;97960.78;5086366;28;20683;-76
2023/03/14 03:52:47;;;;;;;7.87;2.10;;;;;;;10.20;100.00;97960.69;5089875;28;20237;-76
2023/03/14 03:55:13;;;;;;;6.40;1.47;;;;;;;10.20;100.00;97960.69;5076296;28;20176;-75
2023/03/14 03:57:38;;;;;;;6.10;1.50;;;;;;;10.14;100.00;97954.31;5094553;28;20514;-76
2023/03/14 04:00:05;;;;;;;7.20;2.00;;;;;;;10.00;100.00;97965.78;5082488;28;20708;-74
2023/03/14 04:02:31;;;;;;;7.67;2.10;;;;;;;9.94;100.00;97968.88;5090745;28;20580;-76
2023/03/14 04:04:59;;;;;;;5.20;1.90;;;;;;;9.91;100.00;97964.81;5094283;28;20187;-75
2023/03/14 04:07:24;;;;;;;4.33;1.60;;;;;;;9.77;100.00;97967.75;5094663;28;20259;-76
2023/03/14 04:09:49;;;;;;;4.27;1.77;;;;;;;9.82;100.00;97973.28;5109822;28;20282;-75
2023/03/14 04:12:14;;;;;;;6.90;1.80;;;;;;;9.97;100.00;97963.47;5079492;28;20670;-76
2023/03/14 04:14:40;;;;;;;3.10;1.50;;;;;;;9.90;100.00;97967.50;5093827;28;20184;-75
2023/03/14 04:17:06;;;;;;;5.03;1.57;;;;;;;9.78;100.00;97971.94;5099003;28;20746;-76
2023/03/14 04:19:31;;;;;;;4.03;1.40;;;;;;;9.73;100.00;97968.97;5075667;28;20192;-75
2023/03/14 04:21:57;;;;;;;3.57;1.53;;;;;;;9.68;100.00;97972.72;5080804;28;20245;-77
2023/03/14 04:24:22;;;;;;;5.60;1.80;;;;;;;9.71;100.00;97966.50;5092499;28;20199;-77
2023/03/14 04:26:47;;;;;;;7.10;2.00;;;;;;;9.53;100.00;97963.75;5087223;28;20195;-77
2023/03/14 04:29:13;;;;;;;3.80;1.40;;;;;;;9.54;100.00;97962.81;5103627;28;20180;-77
2023/03/14 04:31:38;;;;;;;4.83;1.60;;;;;;;9.44;100.00;97961.94;5073168;27;20223;-76
2023/03/14 04:34:03;;;;;;;2.43;1.33;;;;;;;9.37;100.00;97956.53;5091089;28;20283;-76
2023/03/14 04:36:28;;;;;;;3.73;1.30;;;;;;;9.33;100.00;97945.72;5067487;28;20706;-76
2023/03/14 04:38:54;;;;;;;5.83;1.80;;;;;;;9.24;100.00;97943.09;5093450;28;20168;-76
2023/03/14 04:41:19;;;;;;;2.37;1.30;;;;;;;9.16;100.00;97938.63;5093147;27;20682;-76
2023/03/14 04:43:44;;;;;;;2.27;1.07;;;;;;;9.11;100.00;97933.88;5081144;28;20172;-76
2023/03/14 04:46:09;;;;;;;3.13;1.10;;;;;;;9.10;100.00;97937.38;5093325;28;20680;-77
2023/03/14 04:48:35;;;;;;;4.90;1.53;;;;;;;9.04;100.00;97936.13;5092888;28;20228;-77
2023/03/14 04:51:00;;;;;;;4.67;1.80;;;;;;;8.92;100.00;97934.59;5090872;27;20227;-77
2023/03/14 04:53:25;;;;;;;5.03;1.27;;;;;;;8.94;100.00;97931.88;5083072;28;20253;-77
2023/03/14 04:55:53;;;;;;;3.00;1.60;;;;;;;8.98;100.00;97936.66;5093120;28;20274;-77
2023/03/14 04:58:20;;;;;;;3.23;1.43;;;;;;;8.94;100.00;97930.13;5074889;28;20168;-77
2023/03/14 05:00:46;;;;;;;3.87;1.73;;;;;;;9.03;100.00;97936.28;5081265;28;20220;-77
2023/03/14 05:03:11;;;;;;;3.17;1.50;;;;;;;9.16;100.00;97928.34;5074020;28;20172;-77
2023/03/14 05:05:37;;;;;;;6.10;2.00;;;;;;;9.11;100.00;97920.25;5074842;28;20180;-77
2023/03/14 05:08:02;;;;;;;2.87;1.33;;;;;;;9.31;100.00;97918.56;5074350;28;20176;-77
2023/03/14 05:10:28;;;;;;;2.93;1.47;;;;;;;9.29;100.00;97907.59;5067778;28;20239;-76
2023/03/14 05:12:53;;;;;;;3.80;1.03;;;;;;;9.25;100.00;97904.47;5104656;28;20184;-77
2023/03/14 05:15:18;;;;;;;4.83;1.60;;;;;;;9.19;100.00;97905.00;5092998;28;20191;-77
2023/03/14 05:17:43;;;;;;;4.30;1.40;;;;;;;9.18;100.00;97900.84;5092795;28;20180;-77
2023/03/14 05:20:12;;;;;;;8.27;1.40;;;;;;;9.20;100.00;97897.19;5083252;27;20187;-76
2023/03/14 05:22:38;;;;;;;2.70;1.23;;;;;;;9.23;100.00;97898.69;5106447;28;20172;-76
2023/03/14 05:25:03;;;;;;;4.17;1.37;;;;;;;9.28;100.00;97901.69;5092865;28;20259;-78
2023/03/14 05:27:29;;;;;;;3.27;1.60;;;;;;;9.16;100.00;97913.78;5074162;28;20168;-77
2023/03/14 05:29:54;;;;;;;3.70;1.27;;;;;;;9.08;100.00;97913.63;5092108;28;20208;-77
2023/03/14 05:32:19;;;;;;;3.47;1.53;;;;;;;9.19;100.00;97915.25;5079924;28;20219;-76
2023/03/14 05:34:44;;;;;;;5.43;1.50;;;;;;;9.09;100.00;97914.41;5074187;28;20192;-77
2023/03/14 05:37:10;;;;;;;2.10;1.00;;;;;;;9.10;100.00;97923.75;5074143;28;20639;-77
2023/03/14 05:39:35;;;;;;;4.37;1.70;;;;;;;9.16;100.00;97928.34;5092517;28;20183;-77
2023/03/14 05:42:00;;;;;;;4.63;1.40;;;;;;;9.26;100.00;97924.06;5076791;28;20553;-77
2023/03/14 05:44:26;;;;;;;2.97;1.40;;;;;;;9.26;100.00;97913.81;5074565;28;20229;-77
2023/03/14 05:46:51;;;;;;;3.17;1.47;;;;;;;9.27;100.00;97912.06;5092366;28;20670;-77
2023/03/14 05:49:16;;;;;;;6.03;1.57;;;;;;;9.24;100.00;97909.75;5092378;28;20176;-77
2023/03/14 05:51:42;;;;;;;3.20;1.10;;;;;;;9.25;100.00;97911.38;5077638;28;20230;-77
2023/03/14 05:54:07;;;;;;;2.83;1.20;;;;;;;9.27;100.00;97915.44;5077165;28;20612;-77
2023/03/14 05:56:33;;;;;;;6.60;1.50;;;;;;;9.41;100.00;97914.28;5092206;28;20226;-78
2023/03/14 05:59:01;;;;;;;3.57;1.50;;;;;;;9.52;100.00;97913.38;5074055;28;20172;-78
2023/03/14 06:01:26;;;;;;;4.10;1.50;;;;;;;9.53;100.00;97908.09;5075216;28;20227;-77
2023/03/14 06:03:52;;;;;;;4.87;1.50;;;;;;;9.45;100.00;97904.56;5078193;28;20275;-78
2023/03/14 06:06:17;;;;;;;3.17;1.30;;;;;;;9.52;100.00;97905.66;5091702;28;20222;-77
2023/03/14 06:08:42;;;;;;;1.97;1.07;;;;;;;9.43;100.00;97904.69;5092301;28;20190;-77
2023/03/14 06:11:08;;;;;;;3.47;1.47;;;;;;;9.42;100.00;97903.06;5089727;27;20263;-75
2023/03/14 06:13:33;;;;;;;3.30;1.10;;;;;;;9.42;100.00;97904.84;5098659;28;20229;-75
2023/03/14 06:15:58;;;;;;;4.40;1.30;;;;;;;9.62;100.00;97892.84;5092047;28;20188;-78
2023/03/14 06:18:24;;;;;;;3.13;1.43;;;;;;;9.67;100.00;97895.84;5073649;28;20180;-78
2023/03/14 06:20:52;;;;;;;2.90;1.50;;;;;;;9.56;100.00;97891.63;5087589;27;20227;-78
2023/03/14 06:23:18;;;;;;;2.63;1.13;;;;;;;9.53;100.00;97885.00;5082773;28;20176;-78
2023/03/14 06:25:43;;;;;;;2.50;1.43;;;;;;;9.53;100.00;97882.44;5091504;28;20184;-75
2023/03/14 06:28:11;;;;;;;10.97;1.40;;;;;;;9.53;100.00;97876.50;5091570;28;20184;-78
2023/03/14 06:30:36;;;;;;;4.97;1.20;;;;;;;9.51;100.00;97879.19;5067546;28;20227;-77
2023/03/14 06:33:01;;;;;;;3.30;1.30;;;;;;;9.47;100.00;97874.47;5085750;28;20220;-77
2023/03/14 06:35:27;;;;;;;3.70;1.40;;;;;;;9.47;100.00;97875.25;5073394;28;20195;-77
2023/03/14 06:37:52;;;;;;;2.50;1.17;;;;;;;9.42;100.00;97864.56;5073205;28;20228;-76
2023/03/14 06:40:18;;;;;;;3.73;1.30;;;;;;;9.49;100.00;97857.19;5064806;27;20175;-77
2023/03/14 06:42:44;;;;;;;4.23;1.57;;;;;;;9.58;100.00;97864.06;5091170;28;20179;-77
2023/03/14 06:45:10;;;;;;;3.00;1.00;;;;;;;9.64;100.00;97850.72;5077546;28;20180;-77
2023/03/14 06:47:37;;;;;;;4.87;1.20;;;;;;;9.64;100.00;97848.16;5095845;28;20269;-78
2023/03/14 06:50:04;;;;;;;5.13;1.40;;;;;;;9.80;100.00;97857.09;5071708;27;20650;-77
2023/03/14 06:52:29;;;;;;;2.70;1.20;;;;;;;9.78;100.00;97846.13;5093269;28;20661;-78
2023/03/14 06:54:54;;;;;;;2.33;1.40;;;;;;;9.89;100.00;97855.47;5094518;28;20183;-78
2023/03/14 06:57:20;;;;;;;2.20;1.10;;;;;;;9.93;100.00;97849.13;5077245;28;20586;-76
2023/03/14 06:59:45;;;;;;;3.43;1.47;;;;;;;9.86;100.00;97856.56;5076064;28;20208;-76
2023/03/14 07:02:14;;;;;;;3.43;1.73;;;;;;;10.06;100.00;97849.66;5100694;27;20621;-77
2023/03/14 07:04:41;;;;;;;2.23;1.40;;;;;;;10.14;100.00;97854.91;5072639;28;20184;-77
2023/03/14 07:07:07;;;;;;;1.77;1.30;;;;;;;10.15;100.00;97855.75;5078955;28;20202;-76
2023/03/14 07:09:33;;;;;;;2.33;0.90;;;;;;;10.24;100.00;97851.53;5087220;28;20659;-76
2023/03/14 07:11:58;;;;;;;3.13;1.20;;;;;;;10.12;100.00;97856.00;5100154;27;20296;-76
2023/03/14 07:14:24;;;;;;;4.13;1.10;;;;;;;10.21;100.00;97854.38;5093957;28;20651;-77
2023/03/14 07:16:50;;;;;;;1.53;0.80;;;;;;;10.04;100.00;97861.81;5095545;28;20257;-76
2023/03/14 07:19:15;;;;;;;2.73;1.10;;;;;;;10.08;100.00;97857.22;5102082;28;20214;-75
2023/03/14 07:21:40;;;;;;;2.43;1.30;;;;;;;10.30;100.00;97859.50;5069168;28;20246;-75
2023/03/14 07:24:06;;;;;;;3.00;1.63;;;;;;;10.18;100.00;97864.00;5091922;28;20623;-77
2023/03/14 07:26:32;;;;;;;4.10;1.30;;;;;;;10.33;100.00;97876.41;5092651;28;20234;-77
2023/03/14 07:28:57;;;;;;;4.33;1.30;;;;;;;10.42;100.00;97873.06;5076164;28;20180;-75
2023/03/14 07:31:23;;;;;;;2.60;1.63;;;;;;;10.31;100.00;97875.75;5093251;27;20255;-78
2023/03/14 07:33:49;;;;;;;3.00;1.23;;;;;;;10.43;100.00;97882.38;5098857;28;20595;-76
2023/03/14 07:36:14;;;;;;;3.57;1.40;;;;;;;10.45;100.00;97883.03;5075051;28;20183;-75
2023/03/14 07:38:39;;;;;;;5.53;1.90;;;;;;;10.32;100.00;97883.31;5094977;28;20180;-66
2023/03/14 07:41:06;;;;;;;2.63;1.60;;;;;;;10.37;100.00;97882.13;5089049;27;20224;-76
2023/03/14 07:43:31;;;;;;;2.80;1.27;;;;;;;10.52;100.00;97877.34;5093455;28;20539;-77
2023/03/14 07:45:57;;;;;;;2.63;1.50;;;;;;;10.61;100.00;97884.25;5077157;28;20188;-76
2023/03/14 07:48:24;;;;;;;3.10;1.30;;;;;;;10.50;100.00;97877.50;5076110;28;20216;-75
2023/03/14 07:50:59;;;;;;;2.10;1.50;;;;;;;10.47;100.00;97894.00;5074435;28;20219;-74
2023/03/14 07:53:25;;;;;;;2.23;1.30;;;;;;;10.53;100.00;97881.56;5076269;28;20187;-76
2023/03/14 07:55:51;;;;;;;2.30;1.33;;;;;;;10.54;100.00;97886.56;5083222;28;20236;-77
2023/03/14 07:58:17;;;;;;;2.53;1.40;;;;;;;10.71;100.00;97895.31;5070225;28;20195;-77
2023/03/14 08:00:44;;;;;;;2.33;1.20;;;;;;;10.52;100.00;97893.59;5057087;28;20219;-76
2023/03/14 08:03:13;;;;;;;3.20;1.10;;;;;;;10.30;100.00;97895.47;5124141;23;20322;-75
2023/03/14 08:05:39;;;;;;;2.30;1.57;;;;;;;10.39;100.00;97904.16;5012779;28;20187;-75
2023/03/14 08:08:04;;;;;;;2.73;1.43;;;;;;;10.55;100.00;97906.16;5014857;28;20248;-76
2023/03/14 08:10:31;;;;;;;5.77;2.27;;;;;;;10.73;100.00;97908.03;5013295;28;20679;-75
2023/03/14 08:12:58;;;;;;;3.73;1.70;;;;;;;10.72;100.00;97914.16;5028789;28;20194;-73
2023/03/14 08:15:24;;;;;;;4.47;1.88;;;;;;;10.81;100.00;97905.59;5012042;28;20510;-74
2023/03/14 08:17:51;;;;;;;2.87;1.40;;;;;;;10.70;100.00;97905.75;4999169;28;20191;-74
2023/03/14 08:20:21;;;;;;;5.57;1.80;;;;;;;10.72;100.00;97909.00;5005439;28;20593;-73
2023/03/14 08:22:47;;;;;;;3.40;1.93;;;;;;;10.98;100.00;97907.44;5013630;28;20183;-73
2023/03/14 08:25:13;;;;;;;3.70;1.70;;;;;;;11.37;100.00;97900.53;5012711;28;20171;-73
2023/03/14 08:27:41;;;;;;;3.50;1.80;;;;;;;11.33;100.00;97899.19;5014963;28;20184;-73
2023/03/14 08:30:09;;;;;;;4.13;1.87;;;;;;;11.39;100.00;97896.84;5012075;28;20207;-73
2023/03/14 08:32:34;;;;;;;4.23;1.77;;;;;;;11.50;100.00;97895.03;5013547;28;20236;-74
2023/03/14 08:34:59;;;;;;;6.07;2.70;;;;;;;11.37;100.00;97898.75;5013974;28;20613;-76
2023/03/14 08:37:25;;;;;;;2.27;1.23;;;;;;;11.22;100.00;97897.59;5011867;28;20190;-75
2023/03/14 08:39:51;;;;;;;2.47;1.47;;;;;;;11.07;100.00;97899.84;5013906;28;20182;-74
2023/03/14 08:42:17;;;;;;;3.20;1.60;;;;;;;11.23;100.00;97896.66;5025441;28;20772;-74
2023/03/14 08:44:42;;;;;;;4.30;1.60;;;;;;;10.91;100.00;97905.56;5010625;28;20532;-77
2023/03/14 08:47:07;;;;;;;4.10;1.73;;;;;;;11.15;100.00;97902.53;5013451;28;20225;-79
2023/03/14 08:49:33;;;;;;;2.50;1.70;;;;;;;11.45;100.00;97896.28;5013680;28;20194;-79
2023/03/14 08:51:58;;;;;;;1.73;1.30;;;;;;;11.63;100.00;97901.47;5026294;28;20183;-81
2023/03/14 08:54:24;;;;;;;2.87;1.30;;;;;;;11.73;100.00;97895.44;5029219;28;20330;-80
2023/03/14 08:56:50;;;;;;;3.27;1.57;;;;;;;11.96;100.00;97898.44;5012952;28;20216;-80
2023/03/14 08:59:15;;;;;;;1.80;1.20;;;;;;;11.89;100.00;97893.03;5027302;28;20186;-79
2023/03/14 09:01:40;;;;;;;2.07;1.37;;;;;;;11.69;100.00;97899.28;5027638;28;20244;-78
2023/03/14 09:04:06;;;;;;;1.97;1.00;;;;;;;11.46;100.00;97900.47;5016348;28;20532;-77
2023/03/14 09:06:32;;;;;;;3.07;1.23;;;;;;;11.55;100.00;97895.44;5009586;28;20625;-79
2023/03/14 09:08:57;;;;;;;1.77;1.17;;;;;;;11.63;100.00;97898.91;5027841;28;20195;-78
2023/03/14 09:11:23;;;;;;;2.53;0.93;;;;;;;11.52;100.00;97885.41;5012430;28;20210;-78
2023/03/14 09:13:48;;;;;;;2.17;1.70;;;;;;;11.51;100.00;97887.19;5012248;28;20183;-78
2023/03/14 09:16:14;;;;;;;2.53;1.40;;;;;;;11.46;100.00;97900.47;5009216;28;20642;-78
2023/03/14 09:18:39;;;;;;;1.40;1.10;;;;;;;11.30;100.00;97887.44;5007488;28;20258;-78
2023/03/14 09:21:05;;;;;;;1.63;1.07;;;;;;;11.24;100.00;97893.94;5021991;28;20184;-80
2023/03/14 09:23:30;;;;;;;2.30;1.13;;;;;;;11.25;100.00;97889.59;5010909;28;20532;-80
2023/03/14 09:25:57;;;;;;;1.33;1.00;;;;;;;11.28;100.00;97904.75;5019780;28;20179;-80
2023/03/14 09:28:23;;;;;;;1.97;1.10;;;;;;;11.30;100.00;97893.38;5010846;28;20182;-79
2023/03/14 09:30:49;;;;;;;1.70;1.20;;;;;;;11.13;100.00;97901.84;5011408;28;20230;-79
2023/03/14 09:33:15;;;;;;;2.50;1.23;;;;;;;11.21;100.00;97908.84;5012610;28;20261;-80
2023/03/14 09:35:40;;;;;;;2.63;1.17;;;;;;;11.28;100.00;97900.41;5009737;28;20775;-81
2023/03/14 09:38:05;;;;;;;1.77;1.20;;;;;;;11.45;100.00;97901.44;5008600;28;20191;-80
2023/03/14 09:40:34;;;;;;;2.43;1.40;;;;;;;11.74;100.00;97903.03;5011371;28;20175;-81
2023/03/14 09:43:00;;;;;;;3.13;2.00;;;;;;;11.70;100.00;97898.31;5012984;28;20265;-81
2023/03/14 09:45:40;;;;;;;1.57;1.30;;;;;;;11.93;100.00;97906.44;5012551;28;20197;-80
2023/03/14 09:48:06;;;;;;;1.40;1.30;;;;;;;12.00;100.00;97919.59;5006457;28;20186;-76
2023/03/14 09:50:43;;;;;;;1.57;1.30;;;;;;;12.01;100.00;97908.31;5007831;28;20773;-79
2023/03/14 09:53:16;;;;;;;2.93;1.60;;;;;;;12.40;100.00;97908.00;5015470;28;20195;-77
2023/03/14 09:55:44;;;;;;;2.10;1.10;;;;;;;12.49;100.00;97917.44;5027131;28;20249;-78
2023/03/14 09:58:13;;;;;;;2.00;1.00;;;;;;;12.32;100.00;97908.75;5022863;28;20537;-77
2023/03/14 10:00:38;;;;;;;2.73;1.13;;;;;;;12.27;100.00;97910.97;5010229;28;20229;-78
2023/03/14 10:03:12;;;;;;;2.90;1.20;;;;;;;12.34;100.00;97900.84;5023645;28;20233;-78
2023/03/14 10:05:39;;;;;;;4.50;1.63;;;;;;;12.42;100.00;97906.09;5006937;28;20178;-78
2023/03/14 10:08:05;;;;;;;2.57;1.20;;;;;;;12.61;100.00;97906.88;5010058;28;20186;-77
2023/03/14 10:10:31;;;;;;;1.57;1.40;;;;;;;12.58;100.00;97898.47;5009182;28;20229;-77
2023/03/14 10:13:17;;;;;;;3.33;1.50;;;;;;;12.65;100.00;97903.03;5022685;28;20187;-77
2023/03/14 10:15:52;;;;;;;4.57;1.13;;;;;;;12.52;100.00;97896.50;5026604;28;20266;-78
2023/03/14 10:18:18;;;;;;;2.20;1.07;;;;;;;12.58;100.00;97895.09;5042224;28;20190;-78
2023/03/14 10:20:47;;;;;;;2.30;1.00;;;;;;;12.27;100.00;97891.13;5003440;28;20222;-79
2023/03/14 10:23:12;;;;;;;1.10;1.00;;;;;;;12.15;100.00;97894.09;5010068;28;20253;-78
2023/03/14 10:25:40;;;;;;;1.30;0.90;;;;;;;12.05;100.00;97889.81;5027568;28;20171;-78
2023/03/14 10:28:23;;;;;;;2.57;1.17;;;;;;;12.05;100.00;97894.97;5012645;28;20190;-78
2023/03/14 10:30:48;;;;;;;0.83;0.70;;;;;;;11.96;100.00;97895.88;5000778;28;20735;-79
2023/03/14 10:33:19;;;;;;;1.47;1.10;;;;;;;11.86;100.00;97889.97;5034418;28;20209;-77
2023/03/14 10:35:46;;;;;;;2.23;0.87;;;;;;;11.97;100.00;97900.06;5015624;28;20249;-80
2023/03/14 10:38:17;;;;;;;1.27;1.00;;;;;;;11.86;100.00;97893.34;5026542;28;20536;-79
2023/03/14 10:40:52;;;;;;;4.13;1.40;;;;;;;11.75;100.00;97896.91;5022725;28;20228;-80
2023/03/14 10:43:26;;;;;;;0.93;0.93;;;;;;;11.72;100.00;97886.91;5030177;28;20187;-80
2023/03/14 10:45:57;;;;;;;3.70;1.03;;;;;;;11.67;100.00;97885.72;5023264;28;20189;-79
2023/03/14 10:48:34;;;;;;;1.10;1.03;;;;;;;11.63;100.00;97898.06;5032216;28;20178;-79
2023/03/14 10:51:10;;;;;;;0.93;0.90;;;;;;;11.74;100.00;97895.28;5016074;28;20260;-79
2023/03/14 10:53:45;;;;;;;1.27;1.00;;;;;;;11.59;100.00;97897.56;5030163;28;20272;-79
2023/03/14 10:56:22;;;;;;;1.10;0.90;;;;;;;11.76;100.00;97895.97;5029928;28;20627;-80
2023/03/14 10:58:50;;;;;;;1.07;0.80;;;;;;;12.00;100.00;97897.19;5030030;28;20714;-80
2023/03/14 11:01:40;;;;;;;0.90;0.90;;;;;;;12.07;100.00;97898.22;5030938;28;20237;-79
2023/03/14 11:04:22;;;;;;;1.13;0.97;;;;;;;12.13;100.00;97901.16;5024214;28;20246;-69
2023/03/14 11:07:12;;;;;;;1.17;0.80;;;;;;;12.19;100.00;97900.56;5011482;28;20277;-80
2023/03/14 11:09:37;;;;;;;3.70;0.90;;;;;;;12.42;100.00;97895.78;5010259;28;20193;-81
2023/03/14 11:12:18;;;;;;;2.10;0.63;;;;;;;12.41;100.00;97896.72;5015545;28;20221;-80
2023/03/14 11:14:51;;;;;;;0.67;0.67;;;;;;;12.47;100.00;97901.28;5009977;28;20182;-79
2023/03/14 11:17:45;;;;;;;1.27;0.70;;;;;;;12.67;100.00;97907.06;5011500;28;20185;-79
2023/03/14 11:20:29;;;;;;;0.90;0.70;;;;;;;12.73;100.00;97909.03;4993498;28;20675;-80
2023/03/14 11:23:06;;;;;;;1.77;0.30;;;;;;;12.71;100.00;97908.41;5043592;28;20197;-79
2023/03/14 11:25:44;;;;;;;3.33;0.63;;;;;;;12.97;100.00;97914.50;5030936;28;20188;-79
2023/03/14 11:28:34;;;;;;;0.67;0.47;;;;;;;13.15;100.00;97920.41;5031183;28;20181;-79
2023/03/14 11:31:27;;;;;;;1.10;0.30;;;;;;;13.43;100.00;97920.25;5034247;28;20280;-81